Time;durP1;ratioP1;P1;durP2;ratioP2;P2;SDS_P1;SDS_P2;PMS_P1;PMS_P2;Temp;Humidity;BMP_temperature;BMP_pressure;BME280_temperature;BME280_humidity;BME280_pressure;Samples;Min_cycle;Max_cycle;Signal;HPM_P1;HPM_P2
2022/10/16 12:10:25;;;;;;;18.10;5.84;;;;;;;20.55;100.00;101330.44;3008104;27;23274;-75
2022/10/16 12:11:47;;;;;;;19.52;7.72;;;;;;;20.63;100.00;101330.31;2127955;27;20394;-74
2022/10/16 12:13:32;;;;;;;22.20;6.68;;;;;;;20.62;100.00;101321.38;2111733;28;20074;-72
2022/10/16 12:15:02;;;;;;;15.68;6.10;;;;;;;20.59;100.00;101315.19;2111811;28;20045;-72
2022/10/16 12:16:24;;;;;;;19.98;6.25;;;;;;;20.55;100.00;101306.28;2117383;28;20521;-72
2022/10/16 12:17:46;;;;;;;16.25;6.03;;;;;;;20.54;100.00;101315.25;2108863;28;20075;-73
2022/10/16 12:19:13;;;;;;;15.48;6.45;;;;;;;20.50;100.00;101312.63;2114901;28;21059;-72
2022/10/16 12:20:37;;;;;;;19.33;6.28;;;;;;;20.48;100.00;101318.00;2113026;28;20099;-72
2022/10/16 12:22:02;;;;;;;18.58;6.10;;;;;;;20.47;100.00;101318.97;2104489;28;20060;-71
2022/10/16 12:23:25;;;;;;;17.83;6.32;;;;;;;20.46;100.00;101316.28;2108975;28;20120;-73
2022/10/16 12:24:52;;;;;;;14.98;5.60;;;;;;;20.43;100.00;101321.69;2100219;28;20163;-73
2022/10/16 12:26:15;;;;;;;16.58;5.82;;;;;;;20.41;100.00;101318.16;2099139;28;20445;-73
2022/10/16 12:27:40;;;;;;;20.42;5.95;;;;;;;20.39;100.00;101323.56;2114580;28;20092;-73
2022/10/16 12:29:16;;;;;;;20.10;7.15;;;;;;;20.39;100.00;101328.03;2111464;28;20073;-73
2022/10/16 12:30:39;;;;;;;16.42;7.05;;;;;;;20.41;100.00;101326.22;2102312;28;20131;-73
2022/10/16 12:32:03;;;;;;;14.90;5.60;;;;;;;20.41;100.00;101327.09;2105907;28;20515;-73
2022/10/16 12:33:29;;;;;;;18.08;6.45;;;;;;;20.41;100.00;101335.16;2109233;28;20052;-72
2022/10/16 12:34:53;;;;;;;15.18;6.57;;;;;;;20.45;100.00;101328.81;2109330;28;20044;-72
2022/10/16 12:36:27;;;;;;;18.55;6.13;;;;;;;20.53;100.00;101331.38;2108944;28;20073;-72
2022/10/16 12:37:51;;;;;;;20.92;6.18;;;;;;;20.63;100.00;101327.63;2102074;28;20072;-71
2022/10/16 12:39:23;;;;;;;17.15;6.30;;;;;;;20.72;100.00;101323.91;2112671;28;20108;-74
2022/10/16 12:40:49;;;;;;;17.13;6.30;;;;;;;20.73;100.00;101325.69;2102157;28;20041;-71
2022/10/16 12:42:33;;;;;;;20.90;5.70;;;;;;;20.72;100.00;101332.84;2109036;28;20044;-72
2022/10/16 12:44:00;;;;;;;22.85;7.38;;;;;;;20.72;100.00;101323.91;2094867;28;20464;-72
2022/10/16 12:45:28;;;;;;;19.05;6.28;;;;;;;20.64;100.00;101332.09;2100443;28;20059;-72
2022/10/16 12:46:51;;;;;;;22.25;6.35;;;;;;;20.65;100.00;101333.84;2109147;28;20043;-72
2022/10/16 12:48:22;;;;;;;17.05;5.80;;;;;;;20.68;100.00;101336.47;2099902;28;20107;-71
2022/10/16 12:49:55;;;;;;;14.95;6.05;;;;;;;20.62;100.00;101329.41;2110054;28;20513;-72
2022/10/16 12:51:26;;;;;;;12.52;5.68;;;;;;;20.69;100.00;101324.81;2109846;28;20143;-72
2022/10/16 12:52:49;;;;;;;13.18;6.43;;;;;;;20.77;100.00;101325.59;2100838;28;20125;-72
2022/10/16 12:54:15;;;;;;;22.73;7.85;;;;;;;20.79;100.00;101317.53;2106150;28;20044;-72
2022/10/16 12:55:50;;;;;;;12.70;5.55;;;;;;;20.77;100.00;101330.97;2100829;28;20100;-72
2022/10/16 12:57:33;;;;;;;19.27;5.65;;;;;;;20.80;100.00;101324.66;2110209;28;20040;-72
2022/10/16 12:59:10;;;;;;;18.08;5.63;;;;;;;20.83;100.00;101321.91;2094266;28;20780;-73
2022/10/16 13:00:41;;;;;;;13.55;5.30;;;;;;;20.87;100.00;101321.81;2109622;28;20121;-72
2022/10/16 13:02:41;;;;;;;19.30;5.72;;;;;;;20.90;100.00;101312.84;2097968;28;20543;-72
2022/10/16 13:04:34;;;;;;;18.35;6.32;;;;;;;20.81;100.00;101321.94;2102854;28;20438;-72
2022/10/16 13:06:10;;;;;;;15.48;6.55;;;;;;;20.85;100.00;101322.78;2111227;28;20162;-74
2022/10/16 13:07:49;;;;;;;18.52;5.43;;;;;;;20.86;100.00;101321.88;2102655;28;20056;-72
2022/10/16 13:09:42;;;;;;;15.88;5.28;;;;;;;20.85;100.00;101312.94;2101738;28;20082;-72
2022/10/16 13:11:13;;;;;;;16.75;5.82;;;;;;;20.87;100.00;101326.34;2119238;28;20052;-72
2022/10/16 13:12:54;;;;;;;18.83;6.03;;;;;;;20.87;100.00;101324.50;2102302;28;20151;-71
2022/10/16 13:14:45;;;;;;;20.63;6.05;;;;;;;20.85;100.00;101314.72;2102025;28;20109;-72
2022/10/16 13:16:18;;;;;;;20.38;5.97;;;;;;;20.83;100.00;101317.44;2094188;28;20139;-73
2022/10/16 13:17:49;;;;;;;16.95;5.53;;;;;;;20.86;100.00;101309.34;2093268;28;20044;-72
2022/10/16 13:19:22;;;;;;;14.13;4.55;;;;;;;20.87;100.00;101312.91;2099649;28;20060;-72
2022/10/16 13:21:02;;;;;;;16.10;5.22;;;;;;;20.84;100.00;101313.84;2100951;28;20639;-72
2022/10/16 13:22:34;;;;;;;12.80;5.13;;;;;;;20.83;100.00;101301.31;2100002;28;20056;-72
2022/10/16 13:24:03;;;;;;;15.10;4.53;;;;;;;20.80;100.00;101304.09;2087133;28;20392;-72
2022/10/16 13:25:37;;;;;;;13.77;5.50;;;;;;;20.78;100.00;101308.59;2095356;28;20068;-72
2022/10/16 13:27:09;;;;;;;14.20;5.50;;;;;;;20.83;100.00;101305.81;2103942;28;20086;-72
2022/10/16 13:28:34;;;;;;;17.08;6.28;;;;;;;20.84;100.00;101311.16;2087024;28;20109;-73
2022/10/16 13:30:04;;;;;;;20.77;5.32;;;;;;;20.84;100.00;101315.63;2101670;28;20060;-72
2022/10/16 13:31:27;;;;;;;16.85;5.45;;;;;;;20.85;100.00;101325.47;2103576;28;20047;-72
2022/10/16 13:32:51;;;;;;;15.25;5.70;;;;;;;20.91;100.00;101328.94;2094599;28;20546;-72
2022/10/16 13:34:17;;;;;;;14.90;5.63;;;;;;;20.95;100.00;101316.31;2092573;28;20135;-73
2022/10/16 13:35:48;;;;;;;14.10;5.35;;;;;;;20.94;100.00;101320.81;2101244;28;20450;-72
2022/10/16 13:37:19;;;;;;;12.32;4.55;;;;;;;20.94;100.00;101320.81;2097140;28;20051;-73
2022/10/16 13:38:42;;;;;;;15.18;4.80;;;;;;;20.90;100.00;101324.47;2094245;28;20518;-72
2022/10/16 13:40:20;;;;;;;12.70;4.50;;;;;;;20.92;100.00;101328.03;2094687;28;20044;-72
2022/10/16 13:41:43;;;;;;;13.32;4.90;;;;;;;20.93;100.00;101329.78;2096564;28;20099;-72
2022/10/16 13:43:05;;;;;;;21.58;5.22;;;;;;;20.97;100.00;101326.13;2096998;28;20044;-72
2022/10/16 13:44:28;;;;;;;17.33;4.80;;;;;;;20.92;100.00;101313.72;2094656;28;20135;-73
2022/10/16 13:46:04;;;;;;;10.90;4.10;;;;;;;20.83;100.00;101316.53;2086455;28;20057;-73
2022/10/16 13:47:29;;;;;;;13.77;4.82;;;;;;;20.79;100.00;101312.16;2095399;28;20079;-72
2022/10/16 13:48:57;;;;;;;12.93;5.50;;;;;;;20.69;100.00;101308.72;2094461;28;20070;-74
2022/10/16 13:50:20;;;;;;;11.25;4.65;;;;;;;20.63;100.00;101319.56;2089087;28;20048;-73
2022/10/16 13:51:43;;;;;;;15.73;4.60;;;;;;;20.66;100.00;101315.06;2094302;28;20048;-73
2022/10/16 13:53:05;;;;;;;12.38;4.85;;;;;;;20.72;100.00;101322.13;2094372;28;20441;-73
2022/10/16 13:54:29;;;;;;;19.90;4.82;;;;;;;20.67;100.00;101324.00;2089077;28;20623;-73
2022/10/16 13:55:51;;;;;;;11.00;4.38;;;;;;;20.67;100.00;101324.88;2086049;28;20072;-73
2022/10/16 13:57:15;;;;;;;12.63;4.22;;;;;;;20.67;100.00;101314.16;2084854;28;20040;-73
2022/10/16 13:58:38;;;;;;;16.40;4.97;;;;;;;20.68;100.00;101317.69;2085121;28;20396;-73
2022/10/16 14:00:00;;;;;;;13.60;4.93;;;;;;;20.69;100.00;101322.16;2085721;28;20177;-73
2022/10/16 14:01:29;;;;;;;14.48;4.80;;;;;;;20.64;100.00;101322.25;2100502;28;20509;-73
2022/10/16 14:02:55;;;;;;;22.80;6.22;;;;;;;20.61;100.00;101337.50;2093615;28;20392;-73
2022/10/16 14:04:20;;;;;;;13.85;4.65;;;;;;;20.58;100.00;101335.75;2100622;28;20069;-73
2022/10/16 14:05:48;;;;;;;12.05;4.50;;;;;;;20.58;100.00;101338.44;2096353;28;20048;-73
2022/10/16 14:07:21;;;;;;;13.38;3.83;;;;;;;20.51;100.00;101341.25;2093197;28;20443;-73
2022/10/16 14:08:45;;;;;;;15.40;5.13;;;;;;;20.43;100.00;101351.19;2111055;28;20032;-73
2022/10/16 14:10:21;;;;;;;12.07;4.70;;;;;;;20.33;100.00;101338.84;2103995;28;20044;-72
2022/10/16 14:11:51;;;;;;;15.20;5.05;;;;;;;20.33;100.00;101345.09;2104250;28;20491;-72
2022/10/16 14:13:18;;;;;;;12.13;5.20;;;;;;;20.30;100.00;101346.00;2103446;28;20607;-72
2022/10/16 14:14:44;;;;;;;13.40;4.78;;;;;;;20.27;100.00;101362.16;2093477;28;20049;-72
2022/10/16 14:16:10;;;;;;;16.83;5.38;;;;;;;20.23;100.00;101359.50;2101999;28;20079;-71
2022/10/16 14:17:36;;;;;;;14.77;4.55;;;;;;;20.23;100.00;101367.56;2109883;28;20103;-72
2022/10/16 14:18:59;;;;;;;18.67;4.85;;;;;;;20.20;100.00;101367.59;2099502;28;20694;-71
2022/10/16 14:20:26;;;;;;;23.50;4.95;;;;;;;20.19;100.00;101366.72;2093131;28;20052;-72
2022/10/16 14:21:50;;;;;;;18.13;4.93;;;;;;;20.18;100.00;101364.94;2093830;28;20093;-72
2022/10/16 14:23:22;;;;;;;17.15;5.10;;;;;;;20.16;100.00;101364.06;2093483;28;20481;-72
2022/10/16 14:24:44;;;;;;;22.88;6.32;;;;;;;20.15;100.00;101370.34;2087389;28;20047;-71
2022/10/16 14:26:18;;;;;;;15.85;5.10;;;;;;;20.13;100.00;101357.88;2099864;28;20040;-72
2022/10/16 14:27:41;;;;;;;13.88;5.85;;;;;;;20.10;100.00;101365.94;2097029;28;20673;-72
2022/10/16 14:29:12;;;;;;;18.88;5.38;;;;;;;20.14;100.00;101365.03;2102328;28;20070;-71
2022/10/16 14:30:37;;;;;;;15.43;4.70;;;;;;;20.11;100.00;101368.63;2105444;28;20055;-71
2022/10/16 14:32:01;;;;;;;17.65;5.25;;;;;;;20.10;100.00;101361.47;2092264;28;20052;-71
2022/10/16 14:33:33;;;;;;;16.42;5.22;;;;;;;20.04;100.00;101371.41;2091807;28;20048;-72
2022/10/16 14:34:55;;;;;;;20.77;5.35;;;;;;;20.02;100.00;101373.22;2093166;28;20091;-72
2022/10/16 14:36:20;;;;;;;20.83;5.95;;;;;;;20.06;100.00;101374.94;2091875;28;20041;-72
2022/10/16 14:37:43;;;;;;;15.65;5.47;;;;;;;20.05;100.00;101368.69;2091646;28;20064;-71
2022/10/16 14:39:07;;;;;;;11.48;5.00;;;;;;;20.04;100.00;101372.28;2091516;28;20052;-71
2022/10/16 14:40:31;;;;;;;20.92;6.63;;;;;;;20.04;100.00;101379.44;2094709;28;20072;-71
2022/10/16 14:41:58;;;;;;;14.88;5.85;;;;;;;20.07;100.00;101380.31;2094505;28;20082;-71
2022/10/16 14:43:27;;;;;;;15.68;5.97;;;;;;;20.08;100.00;101382.06;2092665;28;20512;-71
2022/10/16 14:44:52;;;;;;;20.95;6.57;;;;;;;20.05;100.00;101382.09;2094972;28;20052;-71
2022/10/16 14:46:18;;;;;;;20.38;5.30;;;;;;;20.04;100.00;101382.13;2088269;28;20045;-71
2022/10/16 14:47:50;;;;;;;26.13;7.03;;;;;;;20.03;100.00;101391.06;2092032;28;20041;-71
2022/10/16 14:49:20;;;;;;;16.40;5.90;;;;;;;20.02;100.00;101397.34;2095415;28;20082;-73
2022/10/16 14:50:42;;;;;;;15.27;5.50;;;;;;;19.98;100.00;101388.44;2101908;28;20047;-71
2022/10/16 14:52:11;;;;;;;17.90;6.72;;;;;;;19.96;100.00;101397.41;2096302;28;20652;-72
2022/10/16 14:53:33;;;;;;;15.13;6.63;;;;;;;19.90;100.00;101385.88;2111264;28;20078;-72
2022/10/16 14:54:56;;;;;;;14.25;5.53;;;;;;;19.94;100.00;101393.88;2095824;28;20428;-72
2022/10/16 14:56:21;;;;;;;18.88;5.93;;;;;;;19.92;100.00;101393.00;2104343;28;20051;-72
2022/10/16 14:57:45;;;;;;;17.83;5.47;;;;;;;19.94;100.00;101391.19;2104949;28;20096;-72
2022/10/16 14:59:14;;;;;;;18.52;6.22;;;;;;;19.96;100.00;101389.38;2093531;28;20059;-73
2022/10/16 15:00:37;;;;;;;18.35;5.57;;;;;;;19.97;100.00;101391.16;2100696;28;20123;-72
2022/10/16 15:02:00;;;;;;;18.88;6.40;;;;;;;19.96;100.00;101387.56;2093628;28;20074;-72
2022/10/16 15:03:22;;;;;;;18.20;5.60;;;;;;;19.93;100.00;101392.09;2093921;28;20115;-72
2022/10/16 15:04:47;;;;;;;17.00;5.97;;;;;;;19.92;100.00;101398.38;2090648;28;20068;-72
2022/10/16 15:06:12;;;;;;;16.38;5.60;;;;;;;19.89;100.00;101405.53;2107569;28;20044;-71
2022/10/16 15:07:35;;;;;;;19.17;6.10;;;;;;;19.86;100.00;101410.94;2105073;28;20051;-72
2022/10/16 15:08:57;;;;;;;15.73;5.68;;;;;;;19.82;100.00;101403.81;2104563;28;20047;-72
2022/10/16 15:10:22;;;;;;;18.10;5.45;;;;;;;19.79;100.00;101417.28;2110514;28;20078;-72
2022/10/16 15:11:46;;;;;;;16.95;5.88;;;;;;;19.77;100.00;101412.81;2103663;28;20095;-72
2022/10/16 15:13:13;;;;;;;20.25;5.93;;;;;;;19.76;100.00;101414.63;2101507;28;20032;-72
2022/10/16 15:14:35;;;;;;;14.75;5.32;;;;;;;19.74;100.00;101405.72;2093881;28;20519;-72
2022/10/16 15:15:58;;;;;;;16.75;4.90;;;;;;;19.72;100.00;101407.53;2097204;28;20044;-72
2022/10/16 15:17:20;;;;;;;17.08;5.55;;;;;;;19.71;100.00;101405.75;2096265;28;20040;-72
2022/10/16 15:18:43;;;;;;;19.27;6.75;;;;;;;19.71;100.00;101412.91;2085499;28;20056;-72
2022/10/16 15:20:08;;;;;;;12.25;5.25;;;;;;;19.70;100.00;101416.47;2093893;28;20086;-72
2022/10/16 15:21:33;;;;;;;17.83;5.75;;;;;;;19.70;100.00;101420.06;2096107;28;20052;-73
2022/10/16 15:22:55;;;;;;;16.90;6.07;;;;;;;19.68;100.00;101415.63;2088622;28;20488;-73
2022/10/16 15:24:19;;;;;;;18.13;7.05;;;;;;;19.68;100.00;101421.88;2099339;28;20060;-71
2022/10/16 15:25:44;;;;;;;17.42;5.53;;;;;;;19.63;100.00;101418.34;2102168;28;20044;-72
2022/10/16 15:27:07;;;;;;;15.40;5.32;;;;;;;19.56;100.00;101399.69;2095997;28;20085;-73
2022/10/16 15:28:30;;;;;;;14.88;5.10;;;;;;;19.53;100.00;101413.13;2090116;28;20665;-73
2022/10/16 15:29:52;;;;;;;17.98;6.50;;;;;;;19.52;100.00;101414.91;2098656;28;20147;-72
2022/10/16 15:31:15;;;;;;;15.00;5.88;;;;;;;19.55;100.00;101416.66;2102291;28;20040;-71
2022/10/16 15:32:38;;;;;;;18.55;6.03;;;;;;;19.55;100.00;101422.03;2102004;28;20140;-72
2022/10/16 15:34:04;;;;;;;16.27;6.18;;;;;;;19.55;100.00;101422.91;2093334;28;20140;-73
2022/10/16 15:35:28;;;;;;;24.00;6.68;;;;;;;19.54;100.00;101421.13;2086143;28;20041;-71
2022/10/16 15:36:50;;;;;;;18.45;6.35;;;;;;;19.50;100.00;101422.94;2099776;28;20144;-72
2022/10/16 15:38:14;;;;;;;19.33;7.20;;;;;;;19.47;100.00;101412.28;2087985;28;20539;-72
2022/10/16 15:39:37;;;;;;;28.75;8.15;;;;;;;19.44;100.00;101425.66;2101546;28;20043;-71
2022/10/16 15:41:00;;;;;;;20.50;7.95;;;;;;;19.43;100.00;101420.31;2096220;28;20049;-71
2022/10/16 15:42:23;;;;;;;17.60;5.65;;;;;;;19.42;100.00;101415.88;2085415;28;20110;-71
2022/10/16 15:43:45;;;;;;;18.75;7.95;;;;;;;19.36;100.00;101423.97;2101295;28;20109;-71
2022/10/16 15:45:08;;;;;;;16.75;5.30;;;;;;;19.30;100.00;101421.31;2100197;28;20613;-73
2022/10/16 15:46:33;;;;;;;19.88;6.55;;;;;;;19.25;100.00;101423.16;2085368;28;20052;-72
2022/10/16 15:47:56;;;;;;;16.23;6.15;;;;;;;19.22;100.00;101431.25;2099483;28;20036;-71
2022/10/16 15:49:18;;;;;;;21.65;6.32;;;;;;;19.21;100.00;101435.72;2094158;28;20052;-72
2022/10/16 15:50:44;;;;;;;21.33;6.70;;;;;;;19.19;100.00;101432.16;2086062;28;20045;-72
2022/10/16 15:52:05;;;;;;;19.27;6.40;;;;;;;19.18;100.00;101437.50;2105188;28;20039;-73
2022/10/16 15:53:28;;;;;;;18.92;7.05;;;;;;;19.16;100.00;101433.97;2094904;28;20040;-72
2022/10/16 15:54:51;;;;;;;19.00;6.70;;;;;;;19.15;100.00;101434.88;2108006;28;20104;-73
2022/10/16 15:56:15;;;;;;;16.58;6.18;;;;;;;19.14;100.00;101436.66;2103302;28;20113;-72
2022/10/16 15:57:40;;;;;;;17.95;7.03;;;;;;;19.11;100.00;101445.59;2097906;28;20453;-72
2022/10/16 15:59:01;;;;;;;21.73;8.52;;;;;;;19.08;100.00;101445.66;2092755;28;20112;-72
2022/10/16 16:00:25;;;;;;;19.65;8.15;;;;;;;19.03;100.00;101444.78;2093087;28;20143;-71
2022/10/16 16:01:47;;;;;;;15.82;8.48;;;;;;;19.03;100.00;101439.41;2089419;28;20085;-72
2022/10/16 16:03:12;;;;;;;29.00;7.93;;;;;;;19.04;100.00;101449.22;2101918;28;20048;-72
2022/10/16 16:04:33;;;;;;;19.23;6.13;;;;;;;19.02;100.00;101448.38;2102601;28;20077;-71
2022/10/16 16:05:58;;;;;;;19.05;6.63;;;;;;;19.00;100.00;101443.91;2100181;28;20036;-72
2022/10/16 16:07:21;;;;;;;19.40;7.55;;;;;;;18.99;100.00;101439.47;2110112;28;20046;-71
2022/10/16 16:08:43;;;;;;;24.85;7.53;;;;;;;18.98;100.00;101446.59;2104413;28;20052;-72
2022/10/16 16:10:09;;;;;;;23.75;7.28;;;;;;;18.95;100.00;101449.31;2101914;28;20468;-73
2022/10/16 16:11:37;;;;;;;20.92;6.85;;;;;;;18.92;100.00;101438.63;2102384;28;20533;-73
2022/10/16 16:12:59;;;;;;;22.33;8.23;;;;;;;18.92;100.00;101443.97;2094562;28;20047;-72
2022/10/16 16:14:24;;;;;;;20.33;7.03;;;;;;;18.93;100.00;101444.88;2102398;28;20101;-72
2022/10/16 16:15:49;;;;;;;22.52;7.47;;;;;;;18.96;100.00;101459.13;2096439;28;20048;-73
2022/10/16 16:17:12;;;;;;;22.70;7.03;;;;;;;18.97;100.00;101452.84;2094105;28;20057;-71
2022/10/16 16:18:36;;;;;;;22.30;7.60;;;;;;;18.99;100.00;101448.38;2093882;28;20131;-72
2022/10/16 16:19:57;;;;;;;19.52;7.47;;;;;;;18.99;100.00;101456.41;2093419;28;20044;-72
2022/10/16 16:21:22;;;;;;;21.15;6.93;;;;;;;19.01;100.00;101464.44;2087798;28;20045;-72
2022/10/16 16:22:45;;;;;;;22.00;6.97;;;;;;;19.01;100.00;101453.72;2091781;28;20132;-72
2022/10/16 16:24:07;;;;;;;18.23;7.28;;;;;;;19.00;100.00;101454.63;2099379;28;20055;-71
2022/10/16 16:25:30;;;;;;;18.50;7.68;;;;;;;19.01;100.00;101461.75;2102590;28;20098;-72
2022/10/16 16:26:52;;;;;;;22.05;8.77;;;;;;;19.00;100.00;101468.00;2102406;28;20095;-72
2022/10/16 16:28:15;;;;;;;19.42;7.38;;;;;;;19.01;100.00;101459.09;2101792;28;20056;-72
2022/10/16 16:29:41;;;;;;;23.73;6.82;;;;;;;19.03;100.00;101462.66;2094154;28;20037;-71
2022/10/16 16:31:04;;;;;;;28.20;7.88;;;;;;;19.02;100.00;101467.09;2094344;28;20072;-72
2022/10/16 16:32:27;;;;;;;30.95;8.07;;;;;;;19.06;100.00;101467.97;2092809;28;20053;-71
2022/10/16 16:33:51;;;;;;;20.27;7.57;;;;;;;19.07;100.00;101470.63;2093959;28;20049;-72
2022/10/16 16:35:13;;;;;;;24.92;8.15;;;;;;;19.06;100.00;101466.16;2102593;28;20083;-71
2022/10/16 16:36:36;;;;;;;24.25;7.55;;;;;;;19.05;100.00;101467.06;2088209;28;20045;-71
2022/10/16 16:37:59;;;;;;;19.33;6.63;;;;;;;19.06;100.00;101474.19;2093456;28;20435;-72
2022/10/16 16:39:23;;;;;;;23.35;7.65;;;;;;;19.06;100.00;101468.84;2102658;28;20080;-72
2022/10/16 16:40:45;;;;;;;25.63;7.53;;;;;;;19.04;100.00;101470.63;2085725;28;20044;-72
2022/10/16 16:42:11;;;;;;;25.67;8.20;;;;;;;19.06;100.00;101473.31;2106993;28;20444;-72
2022/10/16 16:43:32;;;;;;;21.02;6.95;;;;;;;19.05;100.00;101472.41;2096516;28;20427;-71
2022/10/16 16:44:55;;;;;;;16.75;6.70;;;;;;;19.06;100.00;101476.00;2090721;28;20047;-72
2022/10/16 16:46:18;;;;;;;25.30;7.90;;;;;;;19.08;100.00;101476.88;2099768;28;20052;-71
2022/10/16 16:47:41;;;;;;;21.00;7.90;;;;;;;19.08;100.00;101475.09;2101935;28;20036;-71
2022/10/16 16:49:04;;;;;;;21.52;6.95;;;;;;;19.07;100.00;101469.75;2093723;28;20094;-72
2022/10/16 16:50:27;;;;;;;20.17;7.10;;;;;;;19.05;100.00;101477.78;2099477;28;20152;-71
2022/10/16 16:51:51;;;;;;;23.15;7.28;;;;;;;19.06;100.00;101479.56;2101572;28;20051;-71
2022/10/16 16:53:14;;;;;;;25.08;8.45;;;;;;;19.09;100.00;101481.31;2102077;28;20052;-72
2022/10/16 16:54:37;;;;;;;23.30;7.93;;;;;;;19.09;100.00;101482.22;2092448;28;20044;-72
2022/10/16 16:56:05;;;;;;;21.08;7.03;;;;;;;19.10;100.00;101483.97;2099675;28;20048;-72
2022/10/16 16:57:28;;;;;;;23.10;7.50;;;;;;;19.13;100.00;101491.09;2094591;28;20550;-71
2022/10/16 16:58:52;;;;;;;24.23;7.50;;;;;;;19.17;100.00;101489.28;2095165;28;20135;-71
2022/10/16 17:00:15;;;;;;;21.20;6.80;;;;;;;19.21;100.00;101485.69;2095187;28;20384;-71
2022/10/16 17:01:37;;;;;;;40.38;9.27;;;;;;;19.24;100.00;101507.06;2098406;28;20117;-72
2022/10/16 17:03:00;;;;;;;23.15;7.55;;;;;;;19.25;100.00;101493.66;2103584;28;20164;-71
2022/10/16 17:04:21;;;;;;;21.70;7.03;;;;;;;19.29;100.00;101502.59;2094719;28;20052;-71
2022/10/16 17:05:44;;;;;;;23.75;7.88;;;;;;;19.29;100.00;101495.44;2100479;28;20057;-71
2022/10/16 17:07:08;;;;;;;23.70;7.47;;;;;;;19.30;100.00;101488.28;2095679;28;20056;-72
2022/10/16 17:08:31;;;;;;;25.17;6.47;;;;;;;19.29;100.00;101486.53;2092361;28;20044;-72
2022/10/16 17:09:53;;;;;;;19.70;6.20;;;;;;;19.33;100.00;101498.97;2109177;28;20067;-71
2022/10/16 17:11:18;;;;;;;16.83;6.40;;;;;;;19.31;100.00;101500.75;2106100;28;20422;-72
2022/10/16 17:12:42;;;;;;;19.27;5.95;;;;;;;19.30;100.00;101498.97;2105770;28;20074;-71
2022/10/16 17:14:07;;;;;;;20.98;7.15;;;;;;;19.34;100.00;101501.66;2091269;28;20232;-72
2022/10/16 17:15:30;;;;;;;25.08;7.88;;;;;;;19.38;100.00;101500.69;2093943;28;20056;-72
2022/10/16 17:16:53;;;;;;;19.00;7.00;;;;;;;19.38;100.00;101491.78;2100759;28;20063;-72
2022/10/16 17:18:16;;;;;;;21.77;7.10;;;;;;;19.37;100.00;101506.06;2103401;28;20091;-71
2022/10/16 17:19:39;;;;;;;22.08;6.25;;;;;;;19.36;100.00;101496.28;2095198;28;20106;-72
2022/10/16 17:21:02;;;;;;;18.02;5.97;;;;;;;19.36;100.00;101499.81;2095131;28;20109;-72
2022/10/16 17:22:26;;;;;;;18.42;6.22;;;;;;;19.35;100.00;101502.53;2100882;28;20094;-71
2022/10/16 17:23:51;;;;;;;18.77;5.93;;;;;;;19.33;100.00;101512.34;2097510;28;20055;-72
2022/10/16 17:25:14;;;;;;;22.20;6.85;;;;;;;19.30;100.00;101509.69;2109843;28;20446;-71
2022/10/16 17:26:40;;;;;;;30.40;8.07;;;;;;;19.30;100.00;101509.69;2097469;28;20056;-72
2022/10/16 17:28:02;;;;;;;22.58;6.38;;;;;;;19.30;100.00;101520.41;2102627;28;20059;-71
2022/10/16 17:29:25;;;;;;;24.20;5.88;;;;;;;19.27;100.00;101521.34;2102977;28;20061;-72
2022/10/16 17:30:47;;;;;;;19.75;6.30;;;;;;;19.24;100.00;101515.09;2094755;28;20037;-71
2022/10/16 17:32:10;;;;;;;18.92;6.93;;;;;;;19.22;100.00;101506.22;2103770;28;20100;-71
2022/10/16 17:33:31;;;;;;;17.17;7.18;;;;;;;19.20;100.00;101498.19;2102664;28;20144;-71
2022/10/16 17:34:54;;;;;;;15.25;6.22;;;;;;;19.19;100.00;101499.06;2103053;28;20052;-71
2022/10/16 17:36:16;;;;;;;23.08;6.20;;;;;;;19.15;100.00;101507.16;2103676;28;20048;-71
2022/10/16 17:37:41;;;;;;;17.60;6.32;;;;;;;19.14;100.00;101508.06;2097474;28;20048;-72
2022/10/16 17:39:06;;;;;;;20.20;6.63;;;;;;;19.16;100.00;101514.28;2083931;28;20041;-72
2022/10/16 17:40:29;;;;;;;17.15;6.18;;;;;;;19.15;100.00;101509.84;2084610;28;20056;-72
2022/10/16 17:41:52;;;;;;;17.33;6.07;;;;;;;19.13;100.00;101525.00;2092355;28;20139;-72
2022/10/16 17:43:15;;;;;;;21.70;6.30;;;;;;;19.11;100.00;101514.31;2089584;28;20055;-72
2022/10/16 17:44:38;;;;;;;18.05;5.65;;;;;;;19.11;100.00;101522.34;2095196;28;20075;-72
2022/10/16 17:46:03;;;;;;;24.70;6.40;;;;;;;19.13;100.00;101523.22;2093838;28;20143;-72
2022/10/16 17:47:25;;;;;;;18.15;5.95;;;;;;;19.14;100.00;101532.16;2102333;28;20051;-72
2022/10/16 17:48:50;;;;;;;21.63;7.25;;;;;;;19.15;100.00;101533.94;2103300;28;20051;-72
2022/10/16 17:50:14;;;;;;;20.20;7.05;;;;;;;19.15;100.00;101529.47;2095209;28;20044;-72
2022/10/16 17:51:36;;;;;;;17.63;6.25;;;;;;;19.18;100.00;101536.56;2088977;28;20451;-71
2022/10/16 17:53:00;;;;;;;18.27;6.47;;;;;;;19.17;100.00;101541.03;2107701;28;20039;-71
2022/10/16 17:54:23;;;;;;;20.50;6.00;;;;;;;19.18;100.00;101544.59;2096852;28;20106;-72
2022/10/16 17:55:46;;;;;;;25.67;6.40;;;;;;;19.19;100.00;101549.06;2096542;28;20478;-72
2022/10/16 17:57:09;;;;;;;26.10;6.95;;;;;;;19.20;100.00;101542.81;2099998;28;20044;-72
2022/10/16 17:58:30;;;;;;;21.00;6.95;;;;;;;19.21;100.00;101549.94;2108381;28;20035;-72
2022/10/16 17:59:55;;;;;;;22.85;6.32;;;;;;;19.25;100.00;101549.00;2102827;28;20072;-72
2022/10/16 18:01:21;;;;;;;15.60;5.85;;;;;;;19.29;100.00;101553.47;2104920;28;20168;-72
2022/10/16 18:02:43;;;;;;;16.95;6.03;;;;;;;19.31;100.00;101560.56;2095309;28;20040;-71
2022/10/16 18:04:08;;;;;;;19.98;5.72;;;;;;;19.31;100.00;101559.66;2089480;28;20095;-72
2022/10/16 18:05:31;;;;;;;23.48;6.45;;;;;;;19.31;100.00;101568.59;2101362;28;20052;-72
2022/10/16 18:06:55;;;;;;;18.90;6.03;;;;;;;19.29;100.00;101554.34;2104723;28;20547;-72
2022/10/16 18:08:18;;;;;;;24.13;5.75;;;;;;;19.29;100.00;101556.13;2094102;28;20052;-72
2022/10/16 18:09:41;;;;;;;21.67;6.18;;;;;;;19.30;100.00;101561.47;2091239;28;20053;-72
2022/10/16 18:11:03;;;;;;;19.77;6.68;;;;;;;19.30;100.00;101560.56;2100188;28;20087;-72
2022/10/16 18:12:26;;;;;;;17.17;6.10;;;;;;;19.29;100.00;101557.03;2094620;28;20044;-72
2022/10/16 18:13:51;;;;;;;16.73;6.13;;;;;;;19.33;100.00;101560.56;2100504;28;20052;-71
2022/10/16 18:15:12;;;;;;;15.63;5.28;;;;;;;19.33;100.00;101561.44;2101039;28;20101;-72
2022/10/16 18:16:38;;;;;;;14.13;5.30;;;;;;;19.33;100.00;101553.41;2095075;28;20055;-75
2022/10/16 18:18:01;;;;;;;24.27;6.82;;;;;;;19.33;100.00;101563.22;2092207;28;20063;-72
2022/10/16 18:19:25;;;;;;;18.08;6.10;;;;;;;19.32;100.00;101565.03;2097110;28;20086;-73
2022/10/16 18:20:57;;;;;;;23.77;6.53;;;;;;;19.31;100.00;101557.88;2101922;28;20044;-72
2022/10/16 18:22:19;;;;;;;;;;;;;;;19.29;100.00;101566.84;2104106;28;20525;-72
2022/10/16 18:23:43;;;;;;;15.68;5.78;;;;;;;19.31;100.00;101565.91;2101786;28;19924;-73
2022/10/16 18:25:06;;;;;;;21.60;6.78;;;;;;;19.30;100.00;101571.28;2096672;28;20048;-73
2022/10/16 18:26:29;;;;;;;21.00;7.22;;;;;;;19.32;100.00;101572.16;2083810;28;20084;-72
2022/10/16 18:27:52;;;;;;;21.73;6.43;;;;;;;19.33;100.00;101576.63;2100093;28;20048;-72
2022/10/16 18:29:14;;;;;;;24.55;6.97;;;;;;;19.32;100.00;101573.06;2097063;28;20036;-71
2022/10/16 18:30:36;;;;;;;28.42;7.35;;;;;;;19.33;100.00;101584.66;2094167;28;20052;-72
2022/10/16 18:31:58;;;;;;;18.33;6.07;;;;;;;19.32;100.00;101578.41;2090607;28;20044;-72
2022/10/16 18:33:20;;;;;;;23.33;7.10;;;;;;;19.31;100.00;101587.34;2099284;28;20134;-72
2022/10/16 18:34:42;;;;;;;18.42;6.78;;;;;;;19.36;100.00;101587.31;2105251;28;20048;-72
2022/10/16 18:36:07;;;;;;;17.40;7.20;;;;;;;19.36;100.00;101595.34;2093114;28;20040;-72
2022/10/16 18:37:30;;;;;;;13.73;6.35;;;;;;;19.35;100.00;101590.91;2099257;28;20056;-72
2022/10/16 18:38:53;;;;;;;20.73;8.23;;;;;;;19.38;100.00;101582.81;2104251;28;20705;-72